Time;durP1;ratioP1;P1;durP2;ratioP2;P2;SDS_P1;SDS_P2;PMS_P1;PMS_P2;Temp;Humidity;BMP_temperature;BMP_pressure;BME280_temperature;BME280_humidity;BME280_pressure;Samples;Min_cycle;Max_cycle;Signal;HPM_P1;HPM_P2
2021/07/05 00:02:32;;;;;;;8.58;6.75;;;;;;;21.99;66.14;100124.66;4991835;57;1138785;-81
2021/07/05 00:07:39;;;;;;;9.98;8.20;;;;;;;21.93;66.21;100124.10;5003542;57;1138968;-79
2021/07/05 00:12:48;;;;;;;10.65;7.83;;;;;;;21.80;66.69;100128.93;5084814;57;1138649;-78
2021/07/05 00:17:58;;;;;;;8.55;6.80;;;;;;;21.75;67.21;100121.96;5084725;57;1140739;-76
2021/07/05 00:23:04;;;;;;;9.65;5.85;;;;;;;21.78;67.57;100116.18;5084987;57;1138851;-79
2021/07/05 00:28:11;;;;;;;8.98;6.03;;;;;;;21.67;67.38;100120.29;5084870;57;1138609;-79
2021/07/05 00:33:17;;;;;;;11.18;6.55;;;;;;;21.54;67.62;100113.48;5084771;57;1138637;-76
2021/07/05 00:38:23;;;;;;;6.97;6.37;;;;;;;21.43;68.08;100110.53;5084555;57;1140851;-77
2021/07/05 00:43:29;;;;;;;8.18;7.37;;;;;;;21.54;68.64;100112.67;5084600;57;1138717;-78
2021/07/05 00:48:35;;;;;;;6.30;5.80;;;;;;;21.64;68.61;100118.51;5084609;57;1138692;-80
2021/07/05 00:53:40;;;;;;;6.88;6.38;;;;;;;21.59;68.02;100116.92;5084752;57;1139100;-78
2021/07/05 00:58:46;;;;;;;7.37;6.67;;;;;;;21.55;68.46;100117.00;5084505;57;1138690;-80
2021/07/05 01:03:52;;;;;;;7.12;6.42;;;;;;;21.50;68.46;100122.17;5048347;57;1138625;-77
2021/07/05 01:08:57;;;;;;;8.00;7.28;;;;;;;21.32;68.89;100120.83;4998426;58;1220211;-76
2021/07/05 01:14:04;;;;;;;10.60;7.78;;;;;;;21.30;69.65;100108.09;5000174;58;1138793;-78
2021/07/05 01:19:10;;;;;;;11.43;8.33;;;;;;;21.34;69.67;100116.60;4999990;58;1140732;-79
2021/07/05 01:24:16;;;;;;;9.25;8.28;;;;;;;21.42;69.75;100119.11;4999821;58;1140780;-78
2021/07/05 01:29:22;;;;;;;8.03;7.33;;;;;;;21.49;69.69;100115.95;4999859;58;1138786;-83
2021/07/05 01:34:28;;;;;;;10.13;8.10;;;;;;;21.51;69.59;100117.11;4999992;58;1138726;-78
2021/07/05 01:39:34;;;;;;;15.83;9.03;;;;;;;21.54;69.59;100120.20;4999510;58;1140822;-79
2021/07/05 01:44:41;;;;;;;11.28;7.53;;;;;;;21.53;69.52;100116.39;4999660;58;1140777;-81
2021/07/05 01:49:47;;;;;;;10.00;6.65;;;;;;;21.47;69.07;100111.80;4999706;58;1140946;-83
2021/07/05 01:54:53;;;;;;;11.22;7.80;;;;;;;21.48;69.49;100114.30;4999627;58;1140620;-77
2021/07/05 02:00:03;;;;;;;8.43;7.58;;;;;;;21.53;69.46;100103.77;4987688;58;1140919;-76
2021/07/05 02:05:13;;;;;;;13.98;8.38;;;;;;;21.59;69.48;100115.58;5072005;57;1138922;-81
2021/07/05 02:10:25;;;;;;;11.38;9.68;;;;;;;21.59;69.29;100107.50;5084678;57;1140905;-79
2021/07/05 02:15:31;;;;;;;12.47;8.85;;;;;;;21.53;69.17;100105.63;5084125;57;1141027;-81
2021/07/05 02:20:38;;;;;;;9.65;8.60;;;;;;;21.53;69.22;100105.12;5084354;57;1140807;-81
2021/07/05 02:25:44;;;;;;;9.65;8.75;;;;;;;21.54;69.33;100094.64;5084428;57;1138768;-77
2021/07/05 02:30:52;;;;;;;14.18;9.28;;;;;;;21.45;68.99;100097.70;5084329;57;1138606;-77
2021/07/05 02:35:58;;;;;;;10.15;9.25;;;;;;;21.38;69.49;100091.80;5084099;57;1140983;-80
2021/07/05 02:41:05;;;;;;;11.90;10.53;;;;;;;21.38;69.73;100095.00;5084206;57;1141057;-79
2021/07/05 02:46:12;;;;;;;8.53;7.67;;;;;;;21.34;69.71;100092.39;5084249;57;1142986;-83
2021/07/05 02:51:18;;;;;;;16.60;9.30;;;;;;;21.21;69.23;100100.39;5084537;57;1138613;-77
2021/07/05 02:56:24;;;;;;;10.85;9.80;;;;;;;21.10;69.62;100101.72;5084109;57;1140918;-80
2021/07/05 03:01:30;;;;;;;9.78;8.48;;;;;;;21.14;70.10;100106.20;5084342;57;1140715;-81
2021/07/05 03:06:35;;;;;;;10.40;8.98;;;;;;;21.19;70.26;100102.41;5034501;57;1138887;-83
2021/07/05 03:11:41;;;;;;;19.62;9.50;;;;;;;21.14;69.95;100100.30;5057854;57;1140991;-79
2021/07/05 03:16:46;;;;;;;26.60;9.58;;;;;;;21.02;69.57;100097.85;5032268;57;1140830;-75
2021/07/05 03:21:52;;;;;;;13.70;8.80;;;;;;;20.85;69.76;100101.35;5079998;57;1140661;-81
2021/07/05 03:26:57;;;;;;;10.90;9.20;;;;;;;20.71;70.03;100109.00;5059578;57;1140711;-78
2021/07/05 03:32:06;;;;;;;10.43;8.65;;;;;;;20.66;70.62;100114.95;5053133;57;1140937;-80
2021/07/05 03:37:12;;;;;;;11.60;9.35;;;;;;;20.45;70.61;100108.27;5034894;57;1140958;-79
2021/07/05 03:42:17;;;;;;;14.45;9.25;;;;;;;20.39;71.24;100111.72;5065156;57;1141413;-77
2021/07/05 03:47:23;;;;;;;18.42;10.35;;;;;;;20.42;71.74;100114.02;5058972;57;1140856;-78
2021/07/05 03:52:29;;;;;;;12.56;10.94;;;;;;;20.49;72.26;100120.78;5082586;57;1142871;-80
2021/07/05 03:57:35;;;;;;;11.43;10.43;;;;;;;20.52;72.38;100124.43;5026365;57;1142814;-78
2021/07/05 04:02:42;;;;;;;14.38;11.00;;;;;;;20.61;72.67;100134.04;4973625;57;1143088;-80
2021/07/05 04:07:49;;;;;;;13.32;11.05;;;;;;;20.65;72.56;100135.29;4983052;57;1142958;-77
2021/07/05 04:12:55;;;;;;;15.95;9.63;;;;;;;20.77;72.73;100143.69;4965161;57;1143127;-79
2021/07/05 04:18:01;;;;;;;11.53;9.68;;;;;;;20.77;72.77;100141.00;5012171;57;1140905;-74
2021/07/05 04:23:06;;;;;;;16.48;10.58;;;;;;;20.66;73.04;100136.95;5014228;57;1140966;-77
2021/07/05 04:28:12;;;;;;;17.40;11.97;;;;;;;20.68;73.31;100142.97;5010507;57;1142813;-80
2021/07/05 04:33:18;;;;;;;14.77;10.20;;;;;;;20.83;73.58;100136.17;5009435;57;1142956;-77
2021/07/05 04:38:24;;;;;;;11.88;9.65;;;;;;;20.98;73.41;100136.91;4988494;57;1143003;-78
2021/07/05 04:43:30;;;;;;;11.85;9.75;;;;;;;21.04;73.04;100136.97;5002441;57;1140974;-76
2021/07/05 04:48:38;;;;;;;11.40;8.98;;;;;;;20.98;72.91;100134.22;4989091;57;1140856;-75
2021/07/05 04:53:43;;;;;;;13.38;8.93;;;;;;;20.93;73.02;100127.27;5036752;57;1140828;-76
2021/07/05 04:58:50;;;;;;;13.88;9.15;;;;;;;20.86;73.38;100125.86;5020749;57;1140953;-80
2021/07/05 05:03:55;;;;;;;14.73;7.78;;;;;;;20.94;73.55;100120.84;5018998;57;1140935;-78
2021/07/05 05:09:01;;;;;;;13.62;9.23;;;;;;;21.06;73.59;100123.33;4994192;57;1140922;-79
2021/07/05 05:14:07;;;;;;;12.58;8.13;;;;;;;21.11;73.28;100114.65;5009006;57;1140640;-75
2021/07/05 05:19:13;;;;;;;9.03;8.18;;;;;;;21.17;73.38;100123.29;5000232;57;1140792;-78
2021/07/05 05:24:19;;;;;;;9.80;8.50;;;;;;;21.22;73.35;100122.22;4981739;57;1138600;-76
2021/07/05 05:29:24;;;;;;;8.95;7.62;;;;;;;21.33;73.59;100109.55;4965498;57;1138599;-77
2021/07/05 05:34:31;;;;;;;19.27;8.83;;;;;;;21.48;73.24;100104.87;4973687;57;1138631;-80
2021/07/05 05:39:36;;;;;;;7.08;6.33;;;;;;;21.53;72.87;100096.21;4965498;57;1140768;-75
2021/07/05 05:44:45;;;;;;;11.70;7.85;;;;;;;21.60;72.24;100099.23;4964956;57;1138939;-77
2021/07/05 05:49:49;;;;;;;10.10;8.83;;;;;;;21.60;72.18;100101.92;4965142;57;1140794;-79
2021/07/05 05:54:55;;;;;;;11.08;7.83;;;;;;;21.70;71.63;100101.53;4965071;57;1141021;-77
2021/07/05 06:00:04;;;;;;;10.05;8.53;;;;;;;21.81;71.12;100096.94;4972960;57;1140750;-79
2021/07/05 06:05:11;;;;;;;15.20;9.03;;;;;;;21.80;70.67;100095.28;4972265;57;1140981;-77
2021/07/05 06:10:20;;;;;;;17.37;8.65;;;;;;;21.80;70.37;100095.28;4990856;57;1140801;-78
2021/07/05 06:15:26;;;;;;;9.00;6.72;;;;;;;21.94;70.75;100101.53;4979570;57;1140965;-79
2021/07/05 06:20:32;;;;;;;7.97;7.17;;;;;;;22.15;70.86;100100.08;4987830;57;1138869;-76
2021/07/05 06:25:38;;;;;;;13.40;7.08;;;;;;;22.37;70.23;100102.06;4964619;57;1138561;-80
2021/07/05 06:30:48;;;;;;;17.23;8.03;;;;;;;22.44;69.56;100105.09;4991964;57;1140735;-79
2021/07/05 06:35:54;;;;;;;10.08;8.28;;;;;;;22.60;69.75;100111.94;4973003;57;1140925;-80
2021/07/05 06:41:00;;;;;;;9.63;7.40;;;;;;;22.73;68.43;100114.63;4964571;57;1140795;-79
2021/07/05 06:46:06;;;;;;;12.63;8.53;;;;;;;22.73;68.03;100097.11;4974138;57;1138715;-81
2021/07/05 06:51:12;;;;;;;9.65;7.65;;;;;;;22.75;68.00;100098.25;4972807;57;1140722;-78
2021/07/05 06:56:18;;;;;;;6.37;5.83;;;;;;;22.87;67.97;100087.69;4988150;57;1138716;-77
2021/07/05 07:01:23;;;;;;;9.78;6.35;;;;;;;23.08;67.46;100092.82;4964735;57;1138763;-79
2021/07/05 07:06:29;;;;;;;22.30;6.80;;;;;;;23.27;66.43;100094.66;4977464;57;1138719;-78
2021/07/05 07:11:34;;;;;;;6.80;6.20;;;;;;;23.42;66.70;100088.48;4964168;58;1140692;-80
2021/07/05 07:16:51;;;;;;;5.10;4.70;;;;;;;23.44;64.45;100099.07;4988040;57;1138603;-80
2021/07/05 07:21:52;;;;;;;10.30;5.83;;;;;;;23.52;63.74;100099.41;5020896;57;1138765;-81
2021/07/05 07:26:58;;;;;;;8.70;5.40;;;;;;;23.57;64.58;100090.12;5010364;57;1140705;-79
2021/07/05 07:32:04;;;;;;;6.37;4.20;;;;;;;23.73;64.06;100086.94;5042389;57;1138593;-78
2021/07/05 07:37:10;;;;;;;9.30;4.80;;;;;;;23.92;62.65;100084.66;5010800;57;1138658;-85
2021/07/05 07:42:16;;;;;;;6.72;4.65;;;;;;;24.04;60.75;100079.39;5002664;57;1138799;-84
2021/07/05 08:00:55;;;;;;;10.15;4.75;;;;;;;24.16;57.96;100069.02;5087232;56;47537;-76
2021/07/05 08:06:01;;;;;;;8.73;5.03;;;;;;;24.33;56.02;100057.70;4906536;58;1136885;-78
2021/07/05 08:11:07;;;;;;;5.53;4.97;;;;;;;24.38;55.85;100063.30;4904829;58;1138817;-76
2021/07/05 08:16:12;;;;;;;6.35;5.08;;;;;;;24.51;55.88;100052.37;4963297;56;1138966;-82
2021/07/05 08:21:19;;;;;;;7.17;4.35;;;;;;;24.65;55.55;100063.89;4985452;57;1139299;-80
2021/07/05 08:26:24;;;;;;;5.15;4.72;;;;;;;24.87;55.22;100055.69;5126100;56;1138761;-78
2021/07/05 08:31:30;;;;;;;6.62;4.62;;;;;;;24.90;54.56;100047.13;4947241;58;1138790;-77
2021/07/05 08:36:39;;;;;;;5.87;4.90;;;;;;;24.96;54.73;100051.66;4941252;57;1139255;-74
2021/07/05 08:41:43;;;;;;;5.70;5.15;;;;;;;25.04;55.43;100051.38;5147436;55;1139087;-80
2021/07/05 08:46:51;;;;;;;5.25;4.67;;;;;;;25.12;55.00;100051.59;5130218;55;1138719;-78
2021/07/05 08:51:58;;;;;;;6.62;4.85;;;;;;;25.27;55.36;100051.22;5149100;56;1138806;-74
2021/07/05 08:57:04;;;;;;;5.10;4.45;;;;;;;25.50;54.89;100050.84;5166020;55;1138710;-78
2021/07/05 09:02:11;;;;;;;4.90;4.22;;;;;;;25.61;53.09;100043.00;5138608;55;1139010;-76
2021/07/05 09:07:17;;;;;;;4.55;4.15;;;;;;;25.83;52.98;100040.09;5136948;55;1139092;-77
2021/07/05 09:12:23;;;;;;;19.98;4.83;;;;;;;26.02;51.91;100035.45;5136628;55;1139202;-75
2021/07/05 09:17:34;;;;;;;8.68;4.58;;;;;;;26.10;52.84;100033.78;5146671;55;1141064;-78
2021/07/05 09:22:42;;;;;;;8.10;4.60;;;;;;;26.23;52.36;100038.47;5155403;55;1139045;-78
2021/07/05 09:27:48;;;;;;;5.20;4.10;;;;;;;26.41;52.14;100031.34;5180938;55;1138895;-78
2021/07/05 09:32:53;;;;;;;5.96;4.50;;;;;;;26.53;51.36;100037.06;5159157;55;1138860;-78
2021/07/05 09:38:01;;;;;;;5.37;3.80;;;;;;;26.48;49.88;100037.46;5156234;55;1138722;-78
2021/07/05 09:43:25;;;;;;;9.83;4.58;;;;;;;26.37;49.54;100032.86;5164712;55;1138924;-77
2021/07/05 09:48:31;;;;;;;4.95;4.62;;;;;;;26.45;51.86;100023.01;5161606;55;1138662;-76
2021/07/05 09:53:44;;;;;;;7.22;4.35;;;;;;;26.67;51.52;100017.31;5164630;55;1138709;-72
2021/07/05 09:58:53;;;;;;;4.18;3.98;;;;;;;26.75;50.08;100021.01;5171864;55;1139140;-81
2021/07/05 10:04:06;;;;;;;3.98;3.52;;;;;;;26.90;50.29;100021.35;5143068;55;1138714;-76
2021/07/05 10:09:15;;;;;;;3.33;3.12;;;;;;;26.91;50.89;100014.03;5160901;55;1138811;-79
2021/07/05 10:14:24;;;;;;;5.95;3.72;;;;;;;26.82;49.11;100010.88;5129891;55;1138874;-80
2021/07/05 10:19:30;;;;;;;5.33;3.80;;;;;;;26.75;48.66;100018.83;5126703;55;1138860;-78
2021/07/05 10:24:38;;;;;;;3.87;3.60;;;;;;;26.70;48.70;100016.02;5143722;55;1138727;-76
2021/07/05 10:29:48;;;;;;;3.47;3.17;;;;;;;26.89;49.80;100002.59;5144261;55;1139116;-80
2021/07/05 10:34:55;;;;;;;32.45;5.20;;;;;;;27.25;48.44;100011.83;5137502;55;1138694;-77
2021/07/05 10:40:05;;;;;;;3.47;3.27;;;;;;;27.47;46.55;100019.33;5136469;55;1140858;-82
2021/07/05 10:45:18;;;;;;;5.65;3.12;;;;;;;27.41;45.96;100008.06;5144860;55;1138865;-76
2021/07/05 10:50:45;;;;;;;2.67;2.47;;;;;;;27.37;45.38;100001.45;5152770;55;1138921;-75
2021/07/05 10:55:53;;;;;;;3.22;2.90;;;;;;;27.54;46.41;100000.45;5136676;55;1138742;-74
2021/07/05 11:01:02;;;;;;;5.12;3.10;;;;;;;27.75;45.95;99996.80;5136650;55;1138842;-76
2021/07/05 11:06:30;;;;;;;5.80;3.05;;;;;;;27.88;44.57;100004.64;5136868;55;1136609;-79
2021/07/05 11:11:38;;;;;;;5.37;3.02;;;;;;;27.97;44.05;99988.20;5126586;55;1138777;-80
2021/07/05 11:17:09;;;;;;;4.58;2.80;;;;;;;28.21;43.37;99997.91;5135825;55;1136801;-78
2021/07/05 11:22:38;;;;;;;3.87;2.50;;;;;;;28.34;42.92;99993.49;5157939;55;1136815;-79
2021/07/05 11:27:52;;;;;;;8.05;2.72;;;;;;;28.65;43.11;99991.23;5144213;55;1136800;-80
2021/07/05 11:33:08;;;;;;;4.17;3.17;;;;;;;28.70;40.96;99993.50;5153818;55;1136648;-77
2021/07/05 11:38:36;;;;;;;6.42;3.50;;;;;;;28.80;41.50;99992.84;5134322;56;1136937;-76
2021/07/05 11:43:56;;;;;;;5.75;3.77;;;;;;;28.99;40.16;99995.56;5160928;55;1136609;-75
2021/07/05 11:49:14;;;;;;;2.98;2.77;;;;;;;29.20;40.60;99985.73;5149606;55;1136670;-77
2021/07/05 11:54:24;;;;;;;3.37;3.05;;;;;;;29.03;39.27;99978.16;5151015;55;1136730;-78
2021/07/05 11:59:33;;;;;;;6.53;2.70;;;;;;;28.98;40.45;99982.20;5153322;55;1137078;-78
2021/07/05 12:04:44;;;;;;;3.60;3.30;;;;;;;28.99;37.87;99981.95;5146364;55;1136879;-78
2021/07/05 12:09:53;;;;;;;7.95;3.37;;;;;;;28.78;38.02;99972.36;5153273;55;1136834;-84
2021/07/05 12:15:01;;;;;;;4.70;3.60;;;;;;;28.79;38.68;99976.73;5166018;55;1136701;-83
2021/07/05 12:20:08;;;;;;;4.92;3.00;;;;;;;28.80;38.49;99981.13;5144441;55;1136621;-78
2021/07/05 12:25:15;;;;;;;13.30;4.83;;;;;;;28.86;37.42;99975.52;5136185;56;1136584;-75
2021/07/05 12:30:24;;;;;;;6.08;3.20;;;;;;;28.74;37.31;99970.66;5136024;55;1138899;-75
2021/07/05 12:35:30;;;;;;;5.08;2.55;;;;;;;28.65;36.08;99968.92;5141433;55;1136820;-78
2021/07/05 12:40:36;;;;;;;12.05;3.60;;;;;;;28.56;36.61;99968.25;5148648;55;1136629;-76
2021/07/05 12:45:54;;;;;;;5.37;3.50;;;;;;;28.53;36.67;99966.85;5136636;55;1138707;-76
2021/07/05 12:51:03;;;;;;;5.33;4.65;;;;;;;28.54;36.14;99979.92;5145337;55;1136658;-77
2021/07/05 12:56:18;;;;;;;4.83;3.47;;;;;;;28.53;36.25;99980.45;5136897;55;1136663;-75
2021/07/05 13:01:34;;;;;;;4.42;3.90;;;;;;;28.63;37.00;99974.33;5159617;55;1136805;-76
2021/07/05 13:07:01;;;;;;;7.58;3.55;;;;;;;28.49;37.47;99977.12;5144811;55;1136743;-78
2021/07/05 13:12:09;;;;;;;4.53;3.87;;;;;;;28.40;36.69;99990.86;5156289;55;1136648;-76
2021/07/05 13:17:19;;;;;;;3.85;3.58;;;;;;;28.23;37.25;99981.34;5175597;55;1136584;-79
2021/07/05 13:22:27;;;;;;;6.35;4.00;;;;;;;28.25;38.41;99975.95;5147620;55;1136778;-77
2021/07/05 13:27:36;;;;;;;5.60;3.92;;;;;;;28.44;38.03;99984.66;5147228;55;1136665;-83
2021/07/05 13:33:00;;;;;;;5.37;3.40;;;;;;;28.65;38.56;99978.45;5148128;55;1136687;-82
2021/07/05 13:38:27;;;;;;;7.75;4.33;;;;;;;28.86;38.00;99978.77;5180520;55;1136711;-84
2021/07/05 13:43:32;;;;;;;4.28;3.92;;;;;;;28.60;38.70;100001.50;5168283;55;1136844;-79
2021/07/05 13:48:39;;;;;;;6.05;4.08;;;;;;;28.50;38.19;99989.64;5159376;55;1138734;-79
2021/07/05 13:53:47;;;;;;;6.90;4.62;;;;;;;28.80;38.30;99985.21;5149869;55;1136562;-78
2021/07/05 13:58:58;;;;;;;19.87;5.55;;;;;;;28.73;40.97;100005.77;5149017;55;1136590;-80
2021/07/05 14:04:04;;;;;;;13.27;5.47;;;;;;;28.03;45.19;100036.17;5139619;55;1150788;-82
2021/07/05 14:09:10;;;;;;;5.80;3.65;;;;;;;27.65;45.82;100044.98;5160710;55;1141046;-79
2021/07/05 14:14:16;;;;;;;4.30;3.90;;;;;;;27.25;43.65;100045.77;5154035;55;1138748;-81
2021/07/05 14:19:21;;;;;;;8.73;4.60;;;;;;;26.69;45.58;100058.59;5161363;55;1138787;-79
2021/07/05 14:24:27;;;;;;;17.95;10.58;;;;;;;26.45;47.25;100075.89;5172537;55;1138919;-76
2021/07/05 14:29:33;;;;;;;48.60;29.70;;;;;;;26.10;47.77;100081.22;5156282;55;1142905;-77
2021/07/05 14:34:38;;;;;;;8.18;7.28;;;;;;;26.01;48.20;100082.05;5147872;55;1142977;-84
2021/07/05 14:39:44;;;;;;;18.42;4.95;;;;;;;25.73;48.38;100085.88;5171909;55;1138658;-80
2021/07/05 14:44:50;;;;;;;4.12;3.75;;;;;;;25.42;48.72;100085.51;5162981;55;1140771;-80
2021/07/05 14:49:56;;;;;;;4.92;3.42;;;;;;;25.20;48.87;100075.15;5142501;55;1138674;-77
2021/07/05 14:55:03;;;;;;;2.90;2.70;;;;;;;25.33;49.22;100088.23;5137257;56;1138787;-78
2021/07/05 15:00:16;;;;;;;8.63;2.30;;;;;;;25.10;48.51;100085.64;5136593;56;1138910;-80
2021/07/05 15:05:23;;;;;;;5.40;2.67;;;;;;;24.66;48.63;100083.12;5136492;56;1138714;-77
2021/07/05 15:10:30;;;;;;;3.05;2.12;;;;;;;24.23;48.78;100085.23;5150378;56;1138821;-76
2021/07/05 15:15:36;;;;;;;2.70;2.60;;;;;;;24.15;49.95;100085.45;5146820;56;1138669;-76
2021/07/05 15:20:41;;;;;;;2.10;2.00;;;;;;;24.22;50.07;100082.19;5146772;56;1138796;-78
2021/07/05 15:25:47;;;;;;;2.33;2.22;;;;;;;24.32;49.89;100073.09;5149421;55;1138805;-79
2021/07/05 15:30:53;;;;;;;3.47;3.17;;;;;;;24.12;50.34;100077.80;5176995;55;1138676;-77
2021/07/05 15:35:59;;;;;;;4.62;3.15;;;;;;;24.07;50.87;100083.02;5213324;55;1138688;-77
2021/07/05 15:41:05;;;;;;;6.30;3.22;;;;;;;24.08;51.14;100078.75;5201278;55;1138648;-81
2021/07/05 15:46:10;;;;;;;6.73;2.77;;;;;;;24.15;51.29;100067.88;5210722;55;1138927;-80
2021/07/05 15:51:16;;;;;;;3.98;3.55;;;;;;;24.25;51.42;100064.23;5227575;55;1138932;-79
2021/07/05 15:56:23;;;;;;;7.47;4.45;;;;;;;24.27;51.34;100066.19;5184478;55;1138839;-75
2021/07/05 16:01:29;;;;;;;8.58;3.60;;;;;;;24.28;51.65;100064.31;5135292;56;1138787;-77
2021/07/05 16:06:35;;;;;;;9.00;4.28;;;;;;;24.23;51.62;100062.27;5143440;56;1138822;-78
2021/07/05 16:11:41;;;;;;;12.65;3.37;;;;;;;24.06;51.80;100079.48;5155475;55;1138794;-82
2021/07/05 16:16:47;;;;;;;12.80;3.42;;;;;;;23.92;53.06;100083.84;5167619;55;1140872;-79
2021/07/05 16:21:53;;;;;;;5.75;3.75;;;;;;;23.90;53.68;100081.87;5181523;55;1140935;-77
2021/07/05 16:26:58;;;;;;;4.08;3.77;;;;;;;23.91;54.11;100093.81;5205757;55;1138954;-80
2021/07/05 16:32:05;;;;;;;5.17;4.67;;;;;;;23.91;54.27;100095.16;5212899;55;1138687;-82
2021/07/05 16:37:11;;;;;;;5.87;4.35;;;;;;;23.85;54.43;100091.44;5212922;55;1138773;-80
2021/07/05 16:42:17;;;;;;;4.67;4.28;;;;;;;23.82;54.84;100094.59;5212867;55;1138905;-81
2021/07/05 16:47:23;;;;;;;5.15;4.33;;;;;;;23.76;55.24;100099.49;5213183;55;1138740;-80
2021/07/05 16:52:29;;;;;;;5.08;4.60;;;;;;;23.75;55.80;100098.36;5212876;55;1138916;-85
2021/07/05 16:57:35;;;;;;;5.35;4.87;;;;;;;23.82;56.06;100104.05;5154378;55;1138907;-85
2021/07/05 17:02:51;;;;;;;5.35;4.62;;;;;;;23.89;56.31;100110.75;5148167;55;1138810;-83
2021/07/05 17:08:00;;;;;;;5.28;4.58;;;;;;;23.98;56.60;100107.30;5164549;55;1138907;-79
2021/07/05 17:13:07;;;;;;;4.73;4.33;;;;;;;24.02;56.60;100112.03;5135670;55;1138854;-81
2021/07/05 17:18:13;;;;;;;5.00;4.50;;;;;;;24.02;56.91;100117.95;5219985;55;1138991;-83
2021/07/05 17:23:18;;;;;;;9.40;4.80;;;;;;;23.97;57.09;100121.84;5224339;55;1138762;-78
2021/07/05 17:28:24;;;;;;;5.00;4.50;;;;;;;24.01;57.92;100123.05;5224349;55;1138964;-81
2021/07/05 17:33:30;;;;;;;8.08;5.22;;;;;;;24.08;58.32;100123.85;5224030;55;1138882;-80
2021/07/05 17:38:36;;;;;;;13.05;9.13;;;;;;;24.08;58.27;100123.85;5224256;55;1138835;-80
2021/07/05 17:43:41;;;;;;;18.80;12.05;;;;;;;24.06;58.53;100135.39;5183870;55;1140830;-84
2021/07/05 17:48:47;;;;;;;9.40;7.22;;;;;;;24.08;58.88;100143.59;5142758;55;1143013;-78
2021/07/05 17:53:53;;;;;;;12.10;5.35;;;;;;;24.05;59.05;100133.22;5136828;56;1138699;-80
2021/07/05 17:58:59;;;;;;;5.67;5.20;;;;;;;24.03;59.26;100131.25;5161805;55;1140809;-81
2021/07/05 18:04:05;;;;;;;8.55;5.83;;;;;;;23.92;59.72;100137.34;5208767;55;1139075;-80
2021/07/05 18:09:11;;;;;;;5.15;4.65;;;;;;;23.83;60.04;100144.84;5188272;55;1139235;-84
2021/07/05 18:14:16;;;;;;;126.65;113.28;;;;;;;23.75;60.49;100150.50;5133607;56;1139027;-81
2021/07/05 18:19:24;;;;;;;45.75;39.48;;;;;;;23.75;60.85;100146.97;5126058;56;1147344;-79
2021/07/05 18:24:30;;;;;;;10.00;7.17;;;;;;;23.70;61.21;100148.11;5126144;56;1142908;-79
2021/07/05 18:29:36;;;;;;;25.05;8.25;;;;;;;23.71;61.58;100150.61;5126487;56;1140918;-82
2021/07/05 18:34:41;;;;;;;7.22;6.53;;;;;;;23.72;61.90;100153.62;5126484;56;1140893;-87
2021/07/05 18:39:47;;;;;;;9.90;7.03;;;;;;;23.75;62.17;100161.30;5126002;56;1138887;-82
2021/07/05 18:44:52;;;;;;;10.13;7.15;;;;;;;23.70;62.35;100164.31;5111815;56;1138849;-83
2021/07/05 18:49:59;;;;;;;12.73;6.87;;;;;;;23.62;62.70;100151.06;5132285;56;1140853;-84
2021/07/05 18:55:07;;;;;;;8.27;7.40;;;;;;;23.57;63.00;100162.49;5113113;55;1140995;-85
2021/07/05 19:00:14;;;;;;;9.50;7.22;;;;;;;23.49;63.39;100158.66;5126923;56;1139240;-79
2021/07/05 19:05:22;;;;;;;56.55;32.55;;;;;;;23.37;63.81;100165.23;5126984;56;1139119;-82
2021/07/05 19:10:27;;;;;;;16.35;11.85;;;;;;;23.34;64.06;100173.74;5126585;56;1143251;-78
2021/07/05 19:15:33;;;;;;;20.90;9.80;;;;;;;23.40;64.29;100182.33;5142342;55;1143419;-84
2021/07/05 19:20:39;;;;;;;12.45;8.25;;;;;;;23.48;64.30;100180.77;5170851;55;1141048;-87
2021/07/05 19:25:45;;;;;;;9.53;8.00;;;;;;;23.50;64.36;100181.39;5170521;55;1141044;-82
2021/07/05 19:30:50;;;;;;;10.38;8.83;;;;;;;23.43;64.37;100191.36;5179540;55;1139288;-78
2021/07/05 19:35:57;;;;;;;13.65;8.73;;;;;;;23.38;64.62;100185.75;5233948;55;1140758;-78
2021/07/05 19:41:02;;;;;;;12.65;8.80;;;;;;;23.42;64.82;100197.80;5234176;55;1140926;-75
2021/07/05 19:46:08;;;;;;;16.02;12.33;;;;;;;23.39;64.91;100205.48;5234018;55;1141042;-80
2021/07/05 19:51:14;;;;;;;31.63;14.67;;;;;;;23.47;65.11;100203.92;5230175;55;1143099;-78
2021/07/05 19:56:20;;;;;;;20.85;12.10;;;;;;;23.58;65.21;100209.22;5185072;55;1142948;-78
2021/07/05 20:01:26;;;;;;;16.75;9.83;;;;;;;23.72;65.28;100214.89;5151339;55;1142859;-77
2021/07/05 20:06:32;;;;;;;16.87;9.65;;;;;;;23.81;65.11;100213.13;5214775;55;1140796;-90
2021/07/05 20:11:37;;;;;;;13.28;8.95;;;;;;;23.85;64.78;100232.41;5233107;55;1140846;-78
2021/07/05 20:16:43;;;;;;;74.42;11.12;;;;;;;23.86;65.07;100232.72;5221088;55;1141124;-81
2021/07/05 20:21:49;;;;;;;15.43;8.50;;;;;;;23.86;65.07;100232.72;5213091;55;1143132;-83
2021/07/05 20:26:54;;;;;;;14.47;8.50;;;;;;;23.86;64.86;100246.22;5180856;55;1140763;-80
2021/07/05 20:32:00;;;;;;;9.95;8.80;;;;;;;23.88;64.95;100249.55;5154097;55;1140926;-83
2021/07/05 20:37:06;;;;;;;11.90;8.50;;;;;;;23.82;64.78;100254.47;5140861;55;1138948;-80
2021/07/05 20:42:12;;;;;;;16.32;8.88;;;;;;;23.76;64.89;100249.89;5144936;55;1140978;-82
2021/07/05 20:47:18;;;;;;;17.67;12.73;;;;;;;23.68;65.18;100251.48;5141556;55;1140775;-88
2021/07/05 20:52:23;;;;;;;19.80;17.57;;;;;;;23.47;64.93;100248.46;5136442;56;1142836;-85
2021/07/05 20:57:29;;;;;;;17.25;9.83;;;;;;;23.27;65.22;100249.81;5168492;55;1142983;-85
2021/07/05 21:02:35;;;;;;;12.28;8.63;;;;;;;23.14;65.57;100272.75;5205837;55;1140898;-84
2021/07/05 21:07:41;;;;;;;10.35;9.30;;;;;;;23.00;66.04;100277.83;5223353;55;1140813;-88
2021/07/05 21:12:46;;;;;;;10.20;9.20;;;;;;;22.96;66.32;100287.36;5222831;55;1141082;-86
2021/07/05 21:17:52;;;;;;;11.50;10.15;;;;;;;22.91;66.65;100290.69;5223234;55;1140782;-86
2021/07/05 21:22:58;;;;;;;15.68;8.95;;;;;;;22.92;66.94;100290.97;5147813;56;1143021;-88
2021/07/05 21:28:04;;;;;;;11.93;10.15;;;;;;;22.77;66.67;100291.66;5179194;55;1140918;-79
2021/07/05 21:33:10;;;;;;;13.35;9.88;;;;;;;22.67;66.92;100289.34;5213741;55;1143281;-79
2021/07/05 21:38:16;;;;;;;13.75;9.80;;;;;;;22.73;67.50;100289.05;5133304;56;1140786;-81
2021/07/05 21:43:21;;;;;;;10.35;8.75;;;;;;;22.82;67.57;100288.37;5127295;56;1140946;-81
2021/07/05 21:48:27;;;;;;;10.50;9.33;;;;;;;22.87;67.48;100289.95;5126722;56;1140810;-83
2021/07/05 21:53:33;;;;;;;14.00;9.48;;;;;;;22.90;67.22;100285.50;5120193;56;1140940;-76
2021/07/05 21:58:39;;;;;;;11.50;9.43;;;;;;;22.86;66.84;100299.06;5123014;56;1140868;-83
2021/07/05 22:03:45;;;;;;;9.78;8.88;;;;;;;22.76;66.66;100291.34;5122432;56;1140860;-79
2021/07/05 22:08:51;;;;;;;10.60;9.13;;;;;;;22.69;66.82;100295.88;5122464;56;1138658;-83
2021/07/05 22:13:56;;;;;;;10.40;8.83;;;;;;;22.58;66.78;100293.27;5122442;56;1140766;-82
2021/07/05 22:19:03;;;;;;;11.80;10.53;;;;;;;22.36;67.11;100298.45;5113288;56;1141038;-81
2021/07/05 22:24:08;;;;;;;15.80;10.98;;;;;;;22.23;67.74;100291.14;5212264;55;1143327;-83
2021/07/05 22:29:14;;;;;;;10.43;9.43;;;;;;;22.15;67.86;100289.98;5234598;55;1143332;-85
2021/07/05 22:34:20;;;;;;;9.98;9.08;;;;;;;22.07;67.89;100291.48;5235123;55;1140935;-81
2021/07/05 22:39:25;;;;;;;8.95;8.05;;;;;;;22.02;68.01;100283.98;5235358;55;1138656;-85
2021/07/05 22:44:31;;;;;;;10.28;8.98;;;;;;;21.89;68.04;100285.22;5220188;55;1138507;-86
2021/07/05 22:49:37;;;;;;;8.63;7.75;;;;;;;21.87;68.49;100281.89;5201183;55;1140919;-87
2021/07/05 22:54:42;;;;;;;11.73;8.55;;;;;;;21.93;68.91;100276.24;5226238;55;1138893;-79
2021/07/05 22:59:48;;;;;;;9.75;8.85;;;;;;;22.03;68.65;100287.51;5146861;56;1140696;-82
2021/07/05 23:04:53;;;;;;;8.73;7.85;;;;;;;21.95;68.14;100287.14;5147749;56;1138639;-82
2021/07/05 23:09:59;;;;;;;10.25;7.92;;;;;;;21.82;68.16;100291.10;5147699;56;1138721;-82
2021/07/05 23:15:09;;;;;;;9.00;7.72;;;;;;;21.71;68.63;100283.55;5147850;56;1140760;-86
2021/07/05 23:20:18;;;;;;;7.53;6.83;;;;;;;21.66;68.43;100294.92;5147745;56;1138559;-88
2021/07/05 23:25:25;;;;;;;7.95;7.10;;;;;;;21.50;68.46;100291.70;5147678;56;1138611;-81